Turks and Caicos Islands Weather

[source: ADDS]
METAR
MBPV 310930Z 3112/0112 VRB02KT 9999 FEW020 BKN220 BECMG 3115/3117 14007KT SCT022 MBGT 310930Z 3112/0112 VRB02KT 9999 FEW020 BKN220 BECMG 3115/3117 14007KT SCT022 TAF
MBPV 310930Z 3112/0112 VRB02KT 9999 FEW020 BKN220 BECMG 3115/3117 14007KT SCT022 =
MBGT 310930Z 3112/0112 VRB02KT 9999 FEW020 BKN220 BECMG 3115/3117 14007KT SCT022 =
SR / SS: 10:52 / 22:12 UTC (MBPV 2014-10-31)
E-mail Print PDF
Weather